DW5082 Weather Reports


time (UTC)temp
C
wind
direction
speed
KPH
gust
KPH
rain 1hr
cm
rain 24hr
cm
rain mn
cm
humidity
%
barometer
mb
20190420224206 15 220 3.2 16.1 0.00 2.44 2.39 83 1009.5
20190420223705 15 176 3.2 19.3 0.00 2.44 2.39 84 1009.4
20190420223206 15 142 4.8 19.3 0.00 2.44 2.39 84 1009.4
20190420221706 15 178 3.2 12.9 0.00 2.44 2.39 84 1009.4
20190420221205 15 163 3.2 14.5 0.00 2.44 2.39 85 1009.4
20190420220706 15 179 1.6 20.9 0.00 2.44 2.39 85 1009.4
20190420220208 15 165 8.0 19.3 0.00 2.44 2.39 85 1009.2
20190420214705 15 213 3.2 9.7 0.00 2.44 2.39 87 1009.3
20190420214206 15 169 3.2 19.3 0.00 2.44 2.39 87 1009.2
20190420213706 15 196 1.6 8.0 0.00 2.44 2.39 88 1008.9
20190420213206 15 248 3.2 20.9 0.00 2.44 2.39 88 1008.7
20190420211705 15 194 3.2 19.3 0.00 2.44 2.39 88 1008.8
20190420211205 15 175 3.2 19.3 0.00 2.44 2.39 88 1008.7
20190420210705 16 189 3.2 25.7 0.00 2.44 2.39 89 1008.7
20190420210205 16 221 6.4 19.3 0.00 2.44 2.39 89 1008.8
20190420204705 16 264 3.2 11.3 0.00 2.44 2.39 90 1008.6
20190420204205 16 176 3.2 9.7 0.00 2.44 2.39 90 1008.6
20190420203706 16 203 1.6 4.8 0.00 2.44 2.39 91 1008.4
20190420203205 15 269 3.2 12.9 0.00 2.44 2.39 91 1008.5
20190420201705 15 138 1.6 4.8 0.00 2.44 2.39 91 1008.1
20190420201206 15 303 1.6 12.9 0.00 2.44 2.39 91 1008.1
20190420200705 15 149 3.2 12.9 0.00 2.44 2.39 91 1007.9
20190420200206 15 207 3.2 12.9 0.00 2.44 2.39 91 1008.0
20190420194706 15 196 3.2 9.7 0.00 2.44 2.39 91 1007.9
20190420194205 15 143 3.2 12.9 0.00 2.44 2.39 91 1007.9
20190420193706 15 158 6.4 19.3 0.00 2.44 2.39 91 1008.0
20190420193206 15 331 3.2 22.5 0.00 2.44 2.39 92 1008.0
20190420191706 16 202 6.4 12.9 0.00 2.44 2.39 92 1008.2
20190420191206 16 154 4.8 19.3 0.00 2.44 2.39 92 1008.1
20190420190705 16 214 1.6 19.3 0.00 2.44 2.39 92 1008.1
20190420190206 16 196 8.0 25.7 0.00 2.44 2.39 91 1008.2
20190420184706 17 206 4.8 12.9 0.00 2.44 2.39 91 1008.0
20190420184205 17 224 4.8 24.1 0.00 2.44 2.39 91 1008.0
20190420183706 17 202 6.4 19.3 0.00 2.44 2.39 91 1008.0
20190420183206 17 218 9.7 24.1 0.00 2.44 2.39 92 1007.8
20190420181706 17 204 9.7 25.7 0.00 2.44 2.39 92 1008.0
20190420181205 17 185 8.0 29.0 0.00 2.44 2.39 92 1007.9
20190420180706 17 194 6.4 12.9 0.00 2.44 2.39 92 1008.0
20190420180206 17 183 6.4 19.3 0.00 2.44 2.39 92 1008.0
20190420174705 17 162 4.8 14.5 0.00 2.44 2.39 93 1007.8
20190420174205 17 220 4.8 24.1 0.00 2.44 2.39 93 1008.0
20190420173706 16 172 3.2 9.7 0.00 2.44 2.39 93 1008.0
20190420173207 16 168 6.4 22.5 0.00 2.44 2.39 93 1007.6
20190420171706 16 211 4.8 12.9 0.00 2.44 2.39 93 1007.9
20190420171205 16 186 6.4 32.2 0.00 2.44 2.39 93 1008.3
20190420170706 16 178 8.0 20.9 0.00 2.44 2.39 92 1008.6
20190420170205 16 136 6.4 20.9 0.00 2.44 2.39 92 1008.3
20190420164705 16 217 6.4 20.9 0.00 2.44 2.39 92 1008.8
20190420164205 16 133 4.8 19.3 0.00 2.44 2.39 92 1008.6
20190420163705 17 193 3.2 16.1 0.00 2.44 2.39 92 1008.5
20190420163205 17 229 4.8 20.9 0.00 2.44 2.39 92 1008.4
20190420161706 17 182 4.8 14.5 0.00 2.44 2.39 92 1008.4
20190420161206 17 189 3.2 11.3 0.00 2.44 2.39 92 1008.4
20190420160706 17 168 4.8 16.1 0.00 2.44 2.39 92 1008.1
20190420160205 17 220 4.8 25.7 0.03 2.44 2.39 92 1008.3
20190420154706 17 189 8.0 19.3 0.08 2.44 2.39 93 1008.1
20190420154205 17 183 9.7 19.3 0.08 2.44 2.39 93 1008.3
20190420153705 17 180 8.0 24.1 0.10 2.44 2.39 93 1008.3
20190420153206 17 190 4.8 32.2 0.10 2.44 2.39 93 1008.3
20190420151706 17 158 9.7 25.7 0.13 2.44 2.39 93 1008.4
20190420151206 17 179 8.0 27.4 0.15 2.44 2.39 93 1008.3
20190420150705 17 211 11.3 29.0 0.15 2.44 2.39 93 1008.3
20190420150207 17 203 9.7 27.4 0.13 2.41 2.36 93 1008.2
20190420144706 17 169 8.0 19.3 0.10 2.36 2.31 94 1008.2
20190420144206 17 211 4.8 20.9 0.10 2.36 2.31 93 1008.2
20190420143705 17 193 6.4 25.7 0.10 2.34 2.29 93 1008.1
20190420143206 17 201 4.8 33.8 0.13 2.34 2.29 93 1008.1
20190420141706 17 210 9.7 24.1 0.10 2.31 2.26 93 1008.0
20190420141205 17 184 12.9 33.8 0.10 2.29 2.24 93 1007.9
20190420140706 17 198 11.3 37.0 0.10 2.29 2.24 93 1007.7
20190420140206 17 178 14.5 41.8 0.15 2.29 2.24 93 1007.7
20190420134705 17 188 9.7 45.1 0.23 2.26 2.21 94 1007.6
20190420134206 17 197 16.1 33.8 0.25 2.26 2.21 94 1007.7
20190420133705 17 199 16.1 35.4 0.30 2.24 2.18 94 1007.6
20190420133205 17 186 8.0 32.2 0.28 2.21 2.16 94 1007.6
20190420131706 17 200 14.5 35.4 0.33 2.21 2.16 95 1007.4
20190420131206 17 187 12.9 33.8 0.33 2.18 2.13 95 1007.4
20190420130706 17 167 11.3 27.4 0.36 2.18 2.13 95 1007.5
20190420130205 17 188 9.7 25.7 0.33 2.13 2.08 95 1007.4
20190420124705 16 227 6.4 19.3 0.28 2.03 1.98 95 1007.4
20190420124206 16 154 6.4 19.3 0.28 2.01 1.96 95 1007.3
20190420123706 16 174 9.7 16.1 0.38 1.93 1.88 95 1007.3
20190420123205 16 165 8.0 24.1 0.46 1.93 1.88 95 1007.5
20190420121706 16 208 3.2 19.3 0.64 1.88 1.83 95 1007.4
20190420121206 16 198 6.4 16.1 0.64 1.85 1.80 95 1007.5
20190420120706 16 187 4.8 16.1 0.71 1.83 1.78 95 1007.5
20190420120205 16 168 4.8 16.1 0.79 1.80 1.75 95 1007.5
20190420114706 16 151 3.2 14.5 0.79 1.75 1.70 95 1007.2
20190420114205 16 225 1.6 4.8 0.76 1.73 1.68 95 1007.3
20190420113706 16 140 1.6 11.3 0.94 1.55 1.50 95 1007.2
20190420113206 16 205 3.2 20.9 0.97 1.47 1.42 94 1007.4
20190420111706 16 127 1.6 12.9 0.84 1.24 1.19 95 1007.9
20190420111205 16 176 1.6 9.7 0.81 1.22 1.17 95 1007.5
20190420110706 16 176 6.4 14.5 0.71 1.12 1.07 94 1007.7
20190420110206 16 217 4.8 24.1 0.61 1.02 0.97 95 1007.8
20190420104706 16 184 8.0 19.3 0.56 0.97 0.91 95 1007.5
20190420104206 16 216 4.8 19.3 0.56 0.97 0.91 94 1007.5
20190420103705 16 170 6.4 16.1 0.20 0.61 0.56 94 1007.4
20190420103206 16 179 3.2 20.9 0.10 0.51 0.46 94 1007.1
20190420101706 16 194 4.8 12.9 0.00 0.41 0.36 94 1007.0
20190420101206 16 147 9.7 22.5 0.00 0.41 0.36 94 1006.9
20190420100705 16 199 4.8 14.5 0.00 0.41 0.36 94 1006.9
20190420100205 16 197 3.2 19.3 0.00 0.41 0.36 94 1006.8
20190420094705 16 168 8.0 19.3 0.00 0.41 0.36 94 1006.8
20190420094206 16 202 3.2 11.3 0.00 0.41 0.36 94 1006.8
20190420093705 16 195 3.2 8.0 0.00 0.41 0.36 94 1006.7
20190420093206 16 180 4.8 19.3 0.00 0.41 0.36 94 1006.7
20190420091206 16 197 4.8 22.5 0.03 0.41 0.36 94 1007.0
20190420090705 16 198 3.2 9.7 0.03 0.41 0.36 94 1007.0
20190420090206 16 199 3.2 16.1 0.03 0.41 0.36 94 1007.1
20190420084706 16 197 4.8 12.9 0.03 0.41 0.36 94 1007.0
20190420084205 16 180 6.4 16.1 0.03 0.41 0.36 94 1006.9
20190420083705 16 159 4.8 12.9 0.03 0.41 0.36 94 1006.8
20190420083205 16 220 3.2 16.1 0.03 0.41 0.36 94 1006.8
20190420081706 16 214 6.4 19.3 0.03 0.41 0.36 93 1006.9
20190420081206 16 164 3.2 16.1 0.00 0.38 0.33 93 1006.9
20190420080705 16 157 1.6 9.7 0.00 0.38 0.33 93 1006.9
20190420080206 16 199 3.2 12.9 0.00 0.38 0.33 93 1006.9
20190420074705 16 198 3.2 14.5 0.00 0.38 0.33 93 1006.9
20190420074206 17 216 3.2 14.5 0.00 0.38 0.33 93 1006.8
20190420073705 17 211 3.2 14.5 0.03 0.38 0.33 93 1006.8
20190420073206 17 205 3.2 12.9 0.03 0.38 0.33 93 1006.7
20190420071705 17 130 3.2 8.0 0.03 0.38 0.33 92 1006.5
20190420071206 17 174 1.6 8.0 0.03 0.38 0.33 92 1006.4
20190420070706 17 193 1.6 9.7 0.03 0.38 0.33 92 1006.4
20190420070206 17 198 0.0 16.1 0.03 0.38 0.33 93 1006.4
20190420064706 17 147 4.8 12.9 0.25 0.38 0.33 93 1006.7
20190420064205 17 215 8.0 16.1 0.25 0.38 0.33 94 1006.5
20190420063705 17 201 4.8 16.1 0.25 0.36 0.30 94 1006.6
20190420063205 17 215 3.2 19.3 0.28 0.36 0.30 94 1006.5
20190420061705 16 180 8.0 19.3 0.30 0.36 0.30 94 1006.6
20190420061206 16 193 3.2 14.5 0.30 0.36 0.30 94 1006.6
20190420060706 16 158 3.2 16.1 0.30 0.36 0.30 94 1006.6
20190420060206 16 154 9.7 27.4 0.30 0.36 0.30 94 1007.0
20190420054706 16 194 14.5 32.2 0.08 0.13 0.08 93 1007.5
20190420054206 16 164 14.5 33.8 0.08 0.13 0.08 93 1007.1
20190420053705 16 175 9.7 19.3 0.05 0.10 0.05 93 1007.0
20190420053205 17 210 8.0 25.7 0.03 0.08 0.03 93 1006.6
20190420051705 17 177 8.0 40.2 0.00 0.05 0.00 93 1006.5
20190420051205 17 179 8.0 24.1 0.00 0.05 0.00 93 1006.6
20190420050705 17 174 6.4 16.1 0.00 0.05 0.00 93 1006.6
20190420050205 17 172 8.0 25.7 0.00 0.05 0.00 93 1006.8
20190420044705 17 196 9.7 27.4 0.00 0.05 0.00 93 1007.0
20190420044206 17 173 9.7 22.5 0.00 0.05 0.00 93 1007.0
20190420043705 17 217 6.4 27.4 0.00 0.05 0.00 93 1007.0
20190420043206 17 161 9.7 27.4 0.00 0.05 0.00 93 1007.1
20190420041706 17 219 8.0 20.9 0.00 0.05 0.00 93 1007.2
20190420041205 17 157 9.7 27.4 0.00 0.05 0.00 93 1007.1
20190420040705 17 168 8.0 19.3 0.00 0.05 0.00 93 1007.2
20190420040206 17 209 11.3 25.7 0.00 0.05 0.00 94 1007.1
20190420034706 16 190 6.4 20.9 0.00 0.05 0.05 93 1007.3
20190420034206 16 165 9.7 27.4 0.00 0.05 0.05 93 1007.3
20190420033706 16 184 9.7 24.1 0.00 0.05 0.05 93 1007.4
20190420033205 16 198 6.4 32.2 0.00 0.05 0.05 93 1007.4
20190420031705 16 196 8.0 19.3 0.00 0.05 0.05 93 1007.4
20190420031205 16 207 8.0 24.1 0.00 0.05 0.05 93 1007.5
20190420030705 16 178 14.5 27.4 0.00 0.05 0.05 93 1007.4
20190420030205 16 185 4.8 27.4 0.00 0.05 0.05 93 1007.5
20190420024705 16 208 11.3 32.2 0.00 0.05 0.05 92 1007.4
20190420024206 17 185 8.0 25.7 0.00 0.05 0.05 92 1007.4
20190420023705 17 213 9.7 24.1 0.00 0.05 0.05 92 1007.4
20190420023206 17 168 12.9 32.2 0.00 0.05 0.05 92 1007.4
20190420021706 17 179 8.0 24.1 0.05 0.05 0.05 92 1007.4
20190420021206 17 214 9.7 27.4 0.05 0.05 0.05 92 1007.5
20190420020705 17 168 9.7 32.2 0.05 0.05 0.05 92 1007.5
20190420020205 17 142 8.0 25.7 0.05 0.05 0.05 92 1007.7
20190420014706 17 190 6.4 25.7 0.05 0.05 0.05 91 1007.6
20190420014206 17 194 4.8 19.3 0.05 0.05 0.05 91 1007.7
20190420013705 17 186 8.0 24.1 0.05 0.05 0.05 90 1007.8
20190420013206 17 211 11.3 27.4 0.05 0.05 0.05 89 1008.0
20190420011706 17 198 8.0 25.7 0.00 0.00 0.00 88 1008.0
20190420011205 17 180 9.7 32.2 0.00 0.00 0.00 88 1008.0
20190420010705 17 184 11.3 24.1 0.00 0.00 0.00 88 1008.0
20190420010205 18 206 12.9 24.1 0.00 0.00 0.00 88 1008.1
20190420004706 18 202 11.3 27.4 0.00 0.00 0.00 87 1008.0
20190420004205 18 200 4.8 22.5 0.00 0.00 0.00 87 1008.0
20190420003706 18 172 4.8 22.5 0.00 0.00 0.00 87 1007.9
20190420003206 18 169 3.2 20.9 0.00 0.00 0.00 87 1007.7
20190420001706 18 168 9.7 19.3 0.00 0.00 0.00 87 1008.0
20190420001206 18 191 4.8 24.1 0.00 0.00 0.00 87 1007.8
20190420000710 18 191 8.0 25.7 0.00 0.00 0.00 87 1007.8
20190420000205 18 148 3.2 27.4 0.00 0.00 0.00 86 1007.6
20190419234705 18 195 1.6 16.1 0.00 0.00 0.00 85 1007.9
20190419234205 18 191 8.0 19.3 0.00 0.00 0.00 84 1007.9
20190419233706 18 162 8.0 19.3 0.00 0.00 0.00 84 1007.9
20190419233205 19 214 8.0 27.4 0.00 0.00 0.00 84 1007.9
20190419231706 19 119 9.7 24.1 0.00 0.00 0.00 82 1007.6
20190419231205 20 182 9.7 19.3 0.00 0.00 0.00 82 1007.5
20190419230705 20 198 1.6 19.3 0.00 0.00 0.00 82 1007.5
20190419230206 20 183 6.4 24.1 0.00 0.00 0.00 82 1007.4
20190419224706 20 223 8.0 20.9 0.00 0.00 0.00 81 1007.5